sensor_id;sensor_type;location;lat;lon;timestamp;temperature;humidity
24686;DHT22;12804;51.176;4.452;2024-01-07T00:01:24;5.40;99.90
24686;DHT22;12804;51.176;4.452;2024-01-07T00:03:51;5.40;99.90
24686;DHT22;12804;51.176;4.452;2024-01-07T00:06:17;5.40;99.90
24686;DHT22;12804;51.176;4.452;2024-01-07T00:08:43;5.30;99.90
24686;DHT22;12804;51.176;4.452;2024-01-07T00:11:09;5.40;99.90
24686;DHT22;12804;51.176;4.452;2024-01-07T00:13:35;5.40;99.90
24686;DHT22;12804;51.176;4.452;2024-01-07T00:16:01;5.40;99.90
24686;DHT22;12804;51.176;4.452;2024-01-07T00:18:27;5.40;99.90
24686;DHT22;12804;51.176;4.452;2024-01-07T00:20:53;5.40;99.90
24686;DHT22;12804;51.176;4.452;2024-01-07T00:23:19;5.50;99.80
24686;DHT22;12804;51.176;4.452;2024-01-07T00:25:47;5.50;99.40
24686;DHT22;12804;51.176;4.452;2024-01-07T00:28:12;5.50;97.50
24686;DHT22;12804;51.176;4.452;2024-01-07T00:30:38;5.60;90.40
24686;DHT22;12804;51.176;4.452;2024-01-07T00:33:04;5.50;89.50
24686;DHT22;12804;51.176;4.452;2024-01-07T00:35:30;5.50;91.30
24686;DHT22;12804;51.176;4.452;2024-01-07T00:37:56;5.20;92.80
24686;DHT22;12804;51.176;4.452;2024-01-07T00:40:23;5.20;97.60
24686;DHT22;12804;51.176;4.452;2024-01-07T00:42:52;5.10;97.20
24686;DHT22;12804;51.176;4.452;2024-01-07T00:45:18;5.20;97.80
24686;DHT22;12804;51.176;4.452;2024-01-07T00:47:44;5.30;92.60
24686;DHT22;12804;51.176;4.452;2024-01-07T00:50:10;5.20;93.30
24686;DHT22;12804;51.176;4.452;2024-01-07T00:52:36;5.10;94.30
24686;DHT22;12804;51.176;4.452;2024-01-07T00:55:06;5.20;94.10
24686;DHT22;12804;51.176;4.452;2024-01-07T00:57:32;5.10;94.40
24686;DHT22;12804;51.176;4.452;2024-01-07T00:59:59;5.10;93.80
24686;DHT22;12804;51.176;4.452;2024-01-07T01:02:25;5.10;91.40
24686;DHT22;12804;51.176;4.452;2024-01-07T01:04:51;5.00;84.20
24686;DHT22;12804;51.176;4.452;2024-01-07T01:07:17;5.00;82.00
24686;DHT22;12804;51.176;4.452;2024-01-07T01:09:43;4.90;92.00
24686;DHT22;12804;51.176;4.452;2024-01-07T01:12:09;4.80;92.60
24686;DHT22;12804;51.176;4.452;2024-01-07T01:14:37;4.50;98.70
24686;DHT22;12804;51.176;4.452;2024-01-07T01:17:03;4.50;98.50
24686;DHT22;12804;51.176;4.452;2024-01-07T01:19:29;4.50;98.00
24686;DHT22;12804;51.176;4.452;2024-01-07T01:21:55;4.50;96.10
24686;DHT22;12804;51.176;4.452;2024-01-07T01:24:21;4.50;97.60
24686;DHT22;12804;51.176;4.452;2024-01-07T01:26:47;4.40;99.90
24686;DHT22;12804;51.176;4.452;2024-01-07T01:29:13;4.50;97.40
24686;DHT22;12804;51.176;4.452;2024-01-07T01:31:38;4.50;96.60
24686;DHT22;12804;51.176;4.452;2024-01-07T01:34:04;4.40;97.50
24686;DHT22;12804;51.176;4.452;2024-01-07T01:36:33;4.30;96.30
24686;DHT22;12804;51.176;4.452;2024-01-07T01:38:58;4.40;99.50
24686;DHT22;12804;51.176;4.452;2024-01-07T01:41:24;4.40;96.80
24686;DHT22;12804;51.176;4.452;2024-01-07T01:43:50;4.50;95.70
24686;DHT22;12804;51.176;4.452;2024-01-07T01:46:16;4.60;93.80
24686;DHT22;12804;51.176;4.452;2024-01-07T01:48:42;4.60;94.10
24686;DHT22;12804;51.176;4.452;2024-01-07T01:51:09;4.60;94.70
24686;DHT22;12804;51.176;4.452;2024-01-07T01:53:35;4.50;95.60
24686;DHT22;12804;51.176;4.452;2024-01-07T01:56:02;4.40;99.00
24686;DHT22;12804;51.176;4.452;2024-01-07T01:58:29;4.50;97.50
24686;DHT22;12804;51.176;4.452;2024-01-07T02:00:56;4.40;96.40
24686;DHT22;12804;51.176;4.452;2024-01-07T02:03:22;4.50;98.10
24686;DHT22;12804;51.176;4.452;2024-01-07T02:05:48;4.50;95.30
24686;DHT22;12804;51.176;4.452;2024-01-07T02:08:15;4.40;96.50
24686;DHT22;12804;51.176;4.452;2024-01-07T02:10:41;4.50;97.10
24686;DHT22;12804;51.176;4.452;2024-01-07T02:13:11;4.60;95.80
24686;DHT22;12804;51.176;4.452;2024-01-07T02:15:36;4.60;91.50
24686;DHT22;12804;51.176;4.452;2024-01-07T02:18:03;4.60;92.40
24686;DHT22;12804;51.176;4.452;2024-01-07T02:20:29;4.40;96.10
24686;DHT22;12804;51.176;4.452;2024-01-07T02:22:54;4.40;96.50
24686;DHT22;12804;51.176;4.452;2024-01-07T02:25:24;4.40;98.10
24686;DHT22;12804;51.176;4.452;2024-01-07T02:27:50;4.40;97.30
24686;DHT22;12804;51.176;4.452;2024-01-07T02:30:16;4.60;99.40
24686;DHT22;12804;51.176;4.452;2024-01-07T02:32:43;4.50;99.90
24686;DHT22;12804;51.176;4.452;2024-01-07T02:35:09;4.60;99.90
24686;DHT22;12804;51.176;4.452;2024-01-07T02:37:35;4.60;94.60
24686;DHT22;12804;51.176;4.452;2024-01-07T02:40:00;4.50;93.20
24686;DHT22;12804;51.176;4.452;2024-01-07T02:42:26;4.40;93.20
24686;DHT22;12804;51.176;4.452;2024-01-07T02:44:52;4.40;95.90
24686;DHT22;12804;51.176;4.452;2024-01-07T02:47:18;4.40;97.00
24686;DHT22;12804;51.176;4.452;2024-01-07T02:49:43;4.40;95.30
24686;DHT22;12804;51.176;4.452;2024-01-07T02:52:09;4.40;96.10
24686;DHT22;12804;51.176;4.452;2024-01-07T02:54:35;4.40;91.70
24686;DHT22;12804;51.176;4.452;2024-01-07T02:57:01;4.30;91.70
24686;DHT22;12804;51.176;4.452;2024-01-07T02:59:27;4.30;93.10
24686;DHT22;12804;51.176;4.452;2024-01-07T03:01:52;4.30;95.70
24686;DHT22;12804;51.176;4.452;2024-01-07T03:04:18;4.30;94.30
24686;DHT22;12804;51.176;4.452;2024-01-07T03:06:44;4.30;93.10
24686;DHT22;12804;51.176;4.452;2024-01-07T03:09:10;4.20;92.90
24686;DHT22;12804;51.176;4.452;2024-01-07T03:11:42;4.20;95.80
24686;DHT22;12804;51.176;4.452;2024-01-07T03:14:07;4.10;98.50
24686;DHT22;12804;51.176;4.452;2024-01-07T03:16:33;4.30;94.20
24686;DHT22;12804;51.176;4.452;2024-01-07T03:18:59;4.20;98.50
24686;DHT22;12804;51.176;4.452;2024-01-07T03:21:25;4.20;96.40
24686;DHT22;12804;51.176;4.452;2024-01-07T03:23:51;4.30;96.50
24686;DHT22;12804;51.176;4.452;2024-01-07T03:26:18;4.20;95.70
24686;DHT22;12804;51.176;4.452;2024-01-07T03:28:44;4.20;96.30
24686;DHT22;12804;51.176;4.452;2024-01-07T03:31:12;4.20;96.20
24686;DHT22;12804;51.176;4.452;2024-01-07T03:33:39;4.20;95.30
24686;DHT22;12804;51.176;4.452;2024-01-07T03:36:09;4.20;95.40
24686;DHT22;12804;51.176;4.452;2024-01-07T03:38:35;4.20;94.70
24686;DHT22;12804;51.176;4.452;2024-01-07T03:41:02;4.10;98.40
24686;DHT22;12804;51.176;4.452;2024-01-07T03:43:28;4.20;99.00
24686;DHT22;12804;51.176;4.452;2024-01-07T03:45:53;4.20;99.00
24686;DHT22;12804;51.176;4.452;2024-01-07T03:48:19;4.30;98.80
24686;DHT22;12804;51.176;4.452;2024-01-07T03:50:45;4.30;99.90
24686;DHT22;12804;51.176;4.452;2024-01-07T03:53:12;4.30;99.90
24686;DHT22;12804;51.176;4.452;2024-01-07T03:55:37;4.30;99.90
24686;DHT22;12804;51.176;4.452;2024-01-07T03:58:04;4.30;99.70
24686;DHT22;12804;51.176;4.452;2024-01-07T04:00:30;4.30;99.40
24686;DHT22;12804;51.176;4.452;2024-01-07T04:02:56;4.30;99.90
24686;DHT22;12804;51.176;4.452;2024-01-07T04:05:21;4.20;98.40
24686;DHT22;12804;51.176;4.452;2024-01-07T04:07:47;4.30;99.90
24686;DHT22;12804;51.176;4.452;2024-01-07T04:10:16;4.20;99.90
24686;DHT22;12804;51.176;4.452;2024-01-07T04:12:42;4.20;99.90
24686;DHT22;12804;51.176;4.452;2024-01-07T04:15:08;4.20;99.90
24686;DHT22;12804;51.176;4.452;2024-01-07T04:17:34;4.20;99.90
24686;DHT22;12804;51.176;4.452;2024-01-07T04:20:00;4.30;99.90
24686;DHT22;12804;51.176;4.452;2024-01-07T04:22:26;4.20;99.90
24686;DHT22;12804;51.176;4.452;2024-01-07T04:24:52;4.20;99.60
24686;DHT22;12804;51.176;4.452;2024-01-07T04:27:18;4.10;99.90
24686;DHT22;12804;51.176;4.452;2024-01-07T04:29:44;4.10;99.90
24686;DHT22;12804;51.176;4.452;2024-01-07T04:32:09;4.10;99.90
24686;DHT22;12804;51.176;4.452;2024-01-07T04:34:35;4.10;99.90
24686;DHT22;12804;51.176;4.452;2024-01-07T04:37:01;4.10;99.90
24686;DHT22;12804;51.176;4.452;2024-01-07T04:39:27;4.10;99.90
24686;DHT22;12804;51.176;4.452;2024-01-07T04:41:52;4.20;99.90
24686;DHT22;12804;51.176;4.452;2024-01-07T04:44:18;4.20;99.90
24686;DHT22;12804;51.176;4.452;2024-01-07T04:46:44;4.00;99.90
24686;DHT22;12804;51.176;4.452;2024-01-07T04:49:10;4.00;99.90
24686;DHT22;12804;51.176;4.452;2024-01-07T04:51:35;4.10;99.90
24686;DHT22;12804;51.176;4.452;2024-01-07T04:54:04;4.00;99.90
24686;DHT22;12804;51.176;4.452;2024-01-07T04:56:32;3.90;99.90
24686;DHT22;12804;51.176;4.452;2024-01-07T04:58:57;4.00;99.90
24686;DHT22;12804;51.176;4.452;2024-01-07T05:01:23;4.00;99.90
24686;DHT22;12804;51.176;4.452;2024-01-07T05:03:49;4.10;99.90
24686;DHT22;12804;51.176;4.452;2024-01-07T05:06:15;4.00;99.90
24686;DHT22;12804;51.176;4.452;2024-01-07T05:08:41;3.90;99.90
24686;DHT22;12804;51.176;4.452;2024-01-07T05:11:07;3.80;99.90
24686;DHT22;12804;51.176;4.452;2024-01-07T05:13:34;3.90;99.90
24686;DHT22;12804;51.176;4.452;2024-01-07T05:16:00;4.00;99.90
24686;DHT22;12804;51.176;4.452;2024-01-07T05:18:26;3.90;99.90
24686;DHT22;12804;51.176;4.452;2024-01-07T05:20:52;3.90;99.90
24686;DHT22;12804;51.176;4.452;2024-01-07T05:23:18;3.90;99.90
24686;DHT22;12804;51.176;4.452;2024-01-07T05:25:44;3.80;99.90
24686;DHT22;12804;51.176;4.452;2024-01-07T05:28:13;3.80;99.90
24686;DHT22;12804;51.176;4.452;2024-01-07T05:30:39;3.80;99.90
24686;DHT22;12804;51.176;4.452;2024-01-07T05:33:05;3.80;99.90
24686;DHT22;12804;51.176;4.452;2024-01-07T05:35:31;3.70;99.90
24686;DHT22;12804;51.176;4.452;2024-01-07T05:37:57;3.70;99.90
24686;DHT22;12804;51.176;4.452;2024-01-07T05:40:23;3.80;99.90
24686;DHT22;12804;51.176;4.452;2024-01-07T05:42:49;3.80;99.90
24686;DHT22;12804;51.176;4.452;2024-01-07T05:45:15;3.80;99.90
24686;DHT22;12804;51.176;4.452;2024-01-07T05:47:41;3.70;99.90
24686;DHT22;12804;51.176;4.452;2024-01-07T05:50:07;3.80;99.90
24686;DHT22;12804;51.176;4.452;2024-01-07T05:52:34;3.70;99.90
24686;DHT22;12804;51.176;4.452;2024-01-07T05:55:00;3.60;99.90
24686;DHT22;12804;51.176;4.452;2024-01-07T05:57:26;3.70;99.90
24686;DHT22;12804;51.176;4.452;2024-01-07T05:59:52;3.70;99.90
24686;DHT22;12804;51.176;4.452;2024-01-07T06:02:18;3.80;99.90
24686;DHT22;12804;51.176;4.452;2024-01-07T06:04:44;3.70;99.90
24686;DHT22;12804;51.176;4.452;2024-01-07T06:07:10;3.70;99.90
24686;DHT22;12804;51.176;4.452;2024-01-07T06:09:35;3.80;99.90
24686;DHT22;12804;51.176;4.452;2024-01-07T06:12:01;3.80;99.90
24686;DHT22;12804;51.176;4.452;2024-01-07T06:14:27;3.80;99.90
24686;DHT22;12804;51.176;4.452;2024-01-07T06:16:53;3.70;99.90
24686;DHT22;12804;51.176;4.452;2024-01-07T06:19:21;3.80;99.90
24686;DHT22;12804;51.176;4.452;2024-01-07T06:21:46;3.80;99.90
24686;DHT22;12804;51.176;4.452;2024-01-07T06:24:13;3.90;99.90
24686;DHT22;12804;51.176;4.452;2024-01-07T06:26:38;3.80;99.90
24686;DHT22;12804;51.176;4.452;2024-01-07T06:29:05;3.80;99.90
24686;DHT22;12804;51.176;4.452;2024-01-07T06:31:31;3.80;99.90
24686;DHT22;12804;51.176;4.452;2024-01-07T06:33:57;3.70;99.90
24686;DHT22;12804;51.176;4.452;2024-01-07T06:36:24;3.70;99.90
24686;DHT22;12804;51.176;4.452;2024-01-07T06:38:50;3.70;99.90
24686;DHT22;12804;51.176;4.452;2024-01-07T06:41:16;3.80;99.90
24686;DHT22;12804;51.176;4.452;2024-01-07T06:43:41;3.80;99.90
24686;DHT22;12804;51.176;4.452;2024-01-07T06:46:07;3.70;99.90
24686;DHT22;12804;51.176;4.452;2024-01-07T06:48:33;3.60;99.90
24686;DHT22;12804;51.176;4.452;2024-01-07T06:50:59;3.70;99.90
24686;DHT22;12804;51.176;4.452;2024-01-07T06:53:25;3.80;99.90
24686;DHT22;12804;51.176;4.452;2024-01-07T06:55:51;3.70;99.90
24686;DHT22;12804;51.176;4.452;2024-01-07T06:58:16;3.80;99.90
24686;DHT22;12804;51.176;4.452;2024-01-07T07:00:42;3.90;99.90
24686;DHT22;12804;51.176;4.452;2024-01-07T07:03:08;3.90;99.90
24686;DHT22;12804;51.176;4.452;2024-01-07T07:05:34;4.00;99.90
24686;DHT22;12804;51.176;4.452;2024-01-07T07:08:01;4.10;99.90
24686;DHT22;12804;51.176;4.452;2024-01-07T07:10:27;3.90;99.90
24686;DHT22;12804;51.176;4.452;2024-01-07T07:12:52;3.90;99.90
24686;DHT22;12804;51.176;4.452;2024-01-07T07:15:18;3.80;99.90
24686;DHT22;12804;51.176;4.452;2024-01-07T07:17:44;3.80;99.90
24686;DHT22;12804;51.176;4.452;2024-01-07T07:20:11;3.80;99.90
24686;DHT22;12804;51.176;4.452;2024-01-07T07:22:37;3.80;99.90
24686;DHT22;12804;51.176;4.452;2024-01-07T07:25:03;3.70;99.90
24686;DHT22;12804;51.176;4.452;2024-01-07T07:27:29;3.70;99.90
24686;DHT22;12804;51.176;4.452;2024-01-07T07:29:55;3.70;99.90
24686;DHT22;12804;51.176;4.452;2024-01-07T07:32:20;3.70;99.90
24686;DHT22;12804;51.176;4.452;2024-01-07T07:34:46;3.80;99.90
24686;DHT22;12804;51.176;4.452;2024-01-07T07:37:13;3.80;99.90
24686;DHT22;12804;51.176;4.452;2024-01-07T07:39:39;3.80;99.90
24686;DHT22;12804;51.176;4.452;2024-01-07T07:42:05;3.80;99.90
24686;DHT22;12804;51.176;4.452;2024-01-07T07:44:32;3.70;99.90
24686;DHT22;12804;51.176;4.452;2024-01-07T07:46:57;3.70;99.90
24686;DHT22;12804;51.176;4.452;2024-01-07T07:49:23;3.80;99.90
24686;DHT22;12804;51.176;4.452;2024-01-07T07:51:49;3.70;99.90
24686;DHT22;12804;51.176;4.452;2024-01-07T07:54:15;3.80;99.90
24686;DHT22;12804;51.176;4.452;2024-01-07T07:56:41;3.80;99.90
24686;DHT22;12804;51.176;4.452;2024-01-07T07:59:06;3.80;99.90
24686;DHT22;12804;51.176;4.452;2024-01-07T08:01:34;3.80;99.90
24686;DHT22;12804;51.176;4.452;2024-01-07T08:04:00;3.80;99.90
24686;DHT22;12804;51.176;4.452;2024-01-07T08:06:28;3.80;99.90
24686;DHT22;12804;51.176;4.452;2024-01-07T08:08:54;3.80;99.90
24686;DHT22;12804;51.176;4.452;2024-01-07T08:11:20;3.80;99.90
24686;DHT22;12804;51.176;4.452;2024-01-07T08:13:46;3.80;99.90
24686;DHT22;12804;51.176;4.452;2024-01-07T08:16:13;3.80;99.90
24686;DHT22;12804;51.176;4.452;2024-01-07T08:18:39;3.80;99.90
24686;DHT22;12804;51.176;4.452;2024-01-07T08:21:06;3.90;99.90
24686;DHT22;12804;51.176;4.452;2024-01-07T08:23:31;3.90;99.90
24686;DHT22;12804;51.176;4.452;2024-01-07T08:25:58;3.90;99.90
24686;DHT22;12804;51.176;4.452;2024-01-07T08:28:24;3.90;99.90
24686;DHT22;12804;51.176;4.452;2024-01-07T08:30:50;3.80;99.90
24686;DHT22;12804;51.176;4.452;2024-01-07T08:33:17;3.80;99.90
24686;DHT22;12804;51.176;4.452;2024-01-07T08:35:44;3.80;99.90
24686;DHT22;12804;51.176;4.452;2024-01-07T08:38:10;3.80;99.90
24686;DHT22;12804;51.176;4.452;2024-01-07T08:40:36;3.80;99.90
24686;DHT22;12804;51.176;4.452;2024-01-07T08:43:02;3.90;99.90
24686;DHT22;12804;51.176;4.452;2024-01-07T08:45:28;3.80;99.90
24686;DHT22;12804;51.176;4.452;2024-01-07T08:47:54;3.80;99.90
24686;DHT22;12804;51.176;4.452;2024-01-07T08:50:20;3.80;99.90
24686;DHT22;12804;51.176;4.452;2024-01-07T08:52:46;3.80;99.90
24686;DHT22;12804;51.176;4.452;2024-01-07T08:55:12;3.80;99.90
24686;DHT22;12804;51.176;4.452;2024-01-07T08:57:38;3.80;99.90
24686;DHT22;12804;51.176;4.452;2024-01-07T09:00:05;3.70;99.90
24686;DHT22;12804;51.176;4.452;2024-01-07T09:02:33;3.80;99.90
24686;DHT22;12804;51.176;4.452;2024-01-07T09:04:59;3.80;99.90
24686;DHT22;12804;51.176;4.452;2024-01-07T09:07:25;3.80;99.90
24686;DHT22;12804;51.176;4.452;2024-01-07T09:09:50;3.70;99.90
24686;DHT22;12804;51.176;4.452;2024-01-07T09:12:16;3.60;99.90
24686;DHT22;12804;51.176;4.452;2024-01-07T09:14:42;3.50;99.90
24686;DHT22;12804;51.176;4.452;2024-01-07T09:17:08;3.40;99.90
24686;DHT22;12804;51.176;4.452;2024-01-07T09:19:34;3.50;99.90
24686;DHT22;12804;51.176;4.452;2024-01-07T09:22:00;3.40;99.90
24686;DHT22;12804;51.176;4.452;2024-01-07T09:24:26;3.40;99.90
24686;DHT22;12804;51.176;4.452;2024-01-07T09:26:52;3.40;99.90
24686;DHT22;12804;51.176;4.452;2024-01-07T09:29:18;3.50;99.90
24686;DHT22;12804;51.176;4.452;2024-01-07T09:31:43;3.50;99.90
24686;DHT22;12804;51.176;4.452;2024-01-07T09:34:09;3.40;99.90
24686;DHT22;12804;51.176;4.452;2024-01-07T09:36:35;3.50;99.90
24686;DHT22;12804;51.176;4.452;2024-01-07T09:39:02;3.60;99.90
24686;DHT22;12804;51.176;4.452;2024-01-07T09:41:30;3.60;99.90
24686;DHT22;12804;51.176;4.452;2024-01-07T09:43:57;3.60;99.90
24686;DHT22;12804;51.176;4.452;2024-01-07T09:46:24;3.70;99.90
24686;DHT22;12804;51.176;4.452;2024-01-07T09:48:51;3.60;99.90
24686;DHT22;12804;51.176;4.452;2024-01-07T09:51:20;3.70;99.90
24686;DHT22;12804;51.176;4.452;2024-01-07T09:53:48;3.70;99.10
24686;DHT22;12804;51.176;4.452;2024-01-07T09:56:22;3.70;99.90
24686;DHT22;12804;51.176;4.452;2024-01-07T09:58:48;3.60;98.60
24686;DHT22;12804;51.176;4.452;2024-01-07T10:01:18;3.60;99.90
24686;DHT22;12804;51.176;4.452;2024-01-07T10:03:44;3.70;99.10
24686;DHT22;12804;51.176;4.452;2024-01-07T10:06:11;3.60;99.90
24686;DHT22;12804;51.176;4.452;2024-01-07T10:08:38;3.60;99.90
24686;DHT22;12804;51.176;4.452;2024-01-07T10:11:04;3.70;98.30
24686;DHT22;12804;51.176;4.452;2024-01-07T10:13:30;3.70;99.10
24686;DHT22;12804;51.176;4.452;2024-01-07T10:15:56;3.70;99.60
24686;DHT22;12804;51.176;4.452;2024-01-07T10:18:22;3.70;97.50
24686;DHT22;12804;51.176;4.452;2024-01-07T10:20:48;3.80;99.90
24686;DHT22;12804;51.176;4.452;2024-01-07T10:23:20;3.80;96.10
24686;DHT22;12804;51.176;4.452;2024-01-07T10:25:46;3.70;95.20
24686;DHT22;12804;51.176;4.452;2024-01-07T10:28:13;3.70;97.20
24686;DHT22;12804;51.176;4.452;2024-01-07T10:30:40;3.70;95.50
24686;DHT22;12804;51.176;4.452;2024-01-07T10:33:07;3.60;97.10
24686;DHT22;12804;51.176;4.452;2024-01-07T10:35:35;3.50;95.90
24686;DHT22;12804;51.176;4.452;2024-01-07T10:38:01;3.40;98.80
24686;DHT22;12804;51.176;4.452;2024-01-07T10:40:29;3.40;99.90
24686;DHT22;12804;51.176;4.452;2024-01-07T10:42:56;3.30;99.90
24686;DHT22;12804;51.176;4.452;2024-01-07T10:45:22;3.30;99.90
24686;DHT22;12804;51.176;4.452;2024-01-07T10:47:50;3.30;99.90
24686;DHT22;12804;51.176;4.452;2024-01-07T10:50:17;3.30;99.90
24686;DHT22;12804;51.176;4.452;2024-01-07T10:52:49;3.40;99.20
24686;DHT22;12804;51.176;4.452;2024-01-07T10:55:18;3.40;99.90
24686;DHT22;12804;51.176;4.452;2024-01-07T10:57:48;3.40;99.90
24686;DHT22;12804;51.176;4.452;2024-01-07T11:00:16;3.40;99.90
24686;DHT22;12804;51.176;4.452;2024-01-07T11:08:20;3.60;95.30
24686;DHT22;12804;51.176;4.452;2024-01-07T11:10:55;3.40;95.30
24686;DHT22;12804;51.176;4.452;2024-01-07T11:13:36;3.40;99.80
24686;DHT22;12804;51.176;4.452;2024-01-07T11:16:07;3.50;95.80
24686;DHT22;12804;51.176;4.452;2024-01-07T11:18:45;3.40;91.60
24686;DHT22;12804;51.176;4.452;2024-01-07T11:21:23;3.50;94.10
24686;DHT22;12804;51.176;4.452;2024-01-07T11:23:50;3.40;94.00
24686;DHT22;12804;51.176;4.452;2024-01-07T11:26:19;3.30;94.50
24686;DHT22;12804;51.176;4.452;2024-01-07T11:28:52;3.30;96.40
24686;DHT22;12804;51.176;4.452;2024-01-07T11:31:45;3.30;95.10
24686;DHT22;12804;51.176;4.452;2024-01-07T11:34:42;3.20;96.10
24686;DHT22;12804;51.176;4.452;2024-01-07T11:37:15;3.20;97.10
24686;DHT22;12804;51.176;4.452;2024-01-07T11:39:50;3.40;94.00
24686;DHT22;12804;51.176;4.452;2024-01-07T11:42:17;3.40;92.80
24686;DHT22;12804;51.176;4.452;2024-01-07T11:44:51;3.50;92.40
24686;DHT22;12804;51.176;4.452;2024-01-07T11:47:18;3.50;91.20
24686;DHT22;12804;51.176;4.452;2024-01-07T11:49:45;3.60;85.80
24686;DHT22;12804;51.176;4.452;2024-01-07T11:52:12;3.50;86.20
24686;DHT22;12804;51.176;4.452;2024-01-07T11:54:41;3.50;88.90
24686;DHT22;12804;51.176;4.452;2024-01-07T11:57:07;3.30;93.50
24686;DHT22;12804;51.176;4.452;2024-01-07T11:59:34;3.20;92.10
24686;DHT22;12804;51.176;4.452;2024-01-07T12:02:00;3.20;93.20
24686;DHT22;12804;51.176;4.452;2024-01-07T12:04:27;3.40;92.40
24686;DHT22;12804;51.176;4.452;2024-01-07T12:06:53;3.40;84.00
24686;DHT22;12804;51.176;4.452;2024-01-07T12:09:19;3.10;91.00
24686;DHT22;12804;51.176;4.452;2024-01-07T12:11:45;3.20;91.50
24686;DHT22;12804;51.176;4.452;2024-01-07T12:14:11;3.20;89.40
24686;DHT22;12804;51.176;4.452;2024-01-07T12:16:38;3.40;91.60
24686;DHT22;12804;51.176;4.452;2024-01-07T12:19:04;3.60;82.90
24686;DHT22;12804;51.176;4.452;2024-01-07T12:21:29;3.50;76.70
24686;DHT22;12804;51.176;4.452;2024-01-07T12:23:56;3.60;79.70
24686;DHT22;12804;51.176;4.452;2024-01-07T12:26:31;3.60;78.50
24686;DHT22;12804;51.176;4.452;2024-01-07T12:29:00;3.40;90.00
24686;DHT22;12804;51.176;4.452;2024-01-07T12:31:33;3.20;86.80
24686;DHT22;12804;51.176;4.452;2024-01-07T12:33:59;3.20;90.70
24686;DHT22;12804;51.176;4.452;2024-01-07T12:36:26;3.40;83.20
24686;DHT22;12804;51.176;4.452;2024-01-07T12:38:52;3.20;79.50
24686;DHT22;12804;51.176;4.452;2024-01-07T12:41:22;3.30;86.60
24686;DHT22;12804;51.176;4.452;2024-01-07T12:43:49;3.30;88.10
24686;DHT22;12804;51.176;4.452;2024-01-07T12:46:15;3.40;80.90
24686;DHT22;12804;51.176;4.452;2024-01-07T12:48:41;3.40;77.10
24686;DHT22;12804;51.176;4.452;2024-01-07T12:51:07;3.30;90.00
24686;DHT22;12804;51.176;4.452;2024-01-07T12:53:33;3.40;82.90
24686;DHT22;12804;51.176;4.452;2024-01-07T12:55:59;3.30;78.10
24686;DHT22;12804;51.176;4.452;2024-01-07T12:58:25;3.40;78.80
24686;DHT22;12804;51.176;4.452;2024-01-07T13:00:51;3.30;74.90
24686;DHT22;12804;51.176;4.452;2024-01-07T13:03:17;3.30;74.70
24686;DHT22;12804;51.176;4.452;2024-01-07T13:05:46;3.40;74.20
24686;DHT22;12804;51.176;4.452;2024-01-07T13:08:16;3.40;67.20
24686;DHT22;12804;51.176;4.452;2024-01-07T13:10:44;3.30;76.80
24686;DHT22;12804;51.176;4.452;2024-01-07T13:13:12;3.20;77.70
24686;DHT22;12804;51.176;4.452;2024-01-07T13:15:38;3.20;77.30
24686;DHT22;12804;51.176;4.452;2024-01-07T13:18:04;3.00;88.10
24686;DHT22;12804;51.176;4.452;2024-01-07T13:20:30;3.10;92.20
24686;DHT22;12804;51.176;4.452;2024-01-07T13:22:56;3.20;90.60
24686;DHT22;12804;51.176;4.452;2024-01-07T13:25:22;3.20;82.40
24686;DHT22;12804;51.176;4.452;2024-01-07T13:27:48;3.10;86.50
24686;DHT22;12804;51.176;4.452;2024-01-07T13:30:13;3.30;91.80
24686;DHT22;12804;51.176;4.452;2024-01-07T13:32:39;3.10;93.00
24686;DHT22;12804;51.176;4.452;2024-01-07T13:35:06;3.00;97.10
24686;DHT22;12804;51.176;4.452;2024-01-07T13:37:36;3.20;93.70
24686;DHT22;12804;51.176;4.452;2024-01-07T13:40:03;3.40;78.60
24686;DHT22;12804;51.176;4.452;2024-01-07T13:42:29;3.30;85.10
24686;DHT22;12804;51.176;4.452;2024-01-07T13:44:55;3.40;75.40
24686;DHT22;12804;51.176;4.452;2024-01-07T13:47:21;3.40;72.10
24686;DHT22;12804;51.176;4.452;2024-01-07T13:49:47;3.10;82.50
24686;DHT22;12804;51.176;4.452;2024-01-07T13:52:13;3.30;83.80
24686;DHT22;12804;51.176;4.452;2024-01-07T13:54:38;3.30;77.10
24686;DHT22;12804;51.176;4.452;2024-01-07T13:57:04;3.40;82.20
24686;DHT22;12804;51.176;4.452;2024-01-07T13:59:30;3.50;75.40
24686;DHT22;12804;51.176;4.452;2024-01-07T14:01:56;3.50;74.20
24686;DHT22;12804;51.176;4.452;2024-01-07T14:04:23;3.50;65.30
24686;DHT22;12804;51.176;4.452;2024-01-07T14:06:56;3.40;65.30
24686;DHT22;12804;51.176;4.452;2024-01-07T14:09:22;3.10;78.10
24686;DHT22;12804;51.176;4.452;2024-01-07T14:11:48;3.20;91.50
24686;DHT22;12804;51.176;4.452;2024-01-07T14:14:14;3.20;88.50
24686;DHT22;12804;51.176;4.452;2024-01-07T14:16:39;3.30;87.70
24686;DHT22;12804;51.176;4.452;2024-01-07T14:19:06;3.50;63.30
24686;DHT22;12804;51.176;4.452;2024-01-07T14:21:32;3.40;64.20
24686;DHT22;12804;51.176;4.452;2024-01-07T14:23:58;3.60;63.10
24686;DHT22;12804;51.176;4.452;2024-01-07T14:26:23;3.60;59.10
24686;DHT22;12804;51.176;4.452;2024-01-07T14:28:50;3.60;52.00
24686;DHT22;12804;51.176;4.452;2024-01-07T14:31:19;3.70;38.30
24686;DHT22;12804;51.176;4.452;2024-01-07T14:33:45;3.70;40.80
24686;DHT22;12804;51.176;4.452;2024-01-07T14:36:10;3.70;40.50
24686;DHT22;12804;51.176;4.452;2024-01-07T14:38:46;3.20;51.30
24686;DHT22;12804;51.176;4.452;2024-01-07T14:41:16;3.10;59.40
24686;DHT22;12804;51.176;4.452;2024-01-07T14:43:43;2.90;56.70
24686;DHT22;12804;51.176;4.452;2024-01-07T14:46:09;2.90;65.30
24686;DHT22;12804;51.176;4.452;2024-01-07T14:48:36;2.70;53.00
24686;DHT22;12804;51.176;4.452;2024-01-07T14:51:05;2.70;51.40
24686;DHT22;12804;51.176;4.452;2024-01-07T14:53:30;2.70;50.50
24686;DHT22;12804;51.176;4.452;2024-01-07T14:55:57;2.50;42.60
24686;DHT22;12804;51.176;4.452;2024-01-07T14:58:24;2.40;43.60
24686;DHT22;12804;51.176;4.452;2024-01-07T15:00:50;2.40;42.10
24686;DHT22;12804;51.176;4.452;2024-01-07T15:03:16;2.50;32.70
24686;DHT22;12804;51.176;4.452;2024-01-07T15:05:51;2.50;36.10
24686;DHT22;12804;51.176;4.452;2024-01-07T15:08:16;2.60;41.00
24686;DHT22;12804;51.176;4.452;2024-01-07T15:10:42;2.80;35.90
24686;DHT22;12804;51.176;4.452;2024-01-07T15:13:08;2.80;26.00
24686;DHT22;12804;51.176;4.452;2024-01-07T15:15:36;2.80;24.70
24686;DHT22;12804;51.176;4.452;2024-01-07T15:18:02;2.70;22.30
24686;DHT22;12804;51.176;4.452;2024-01-07T15:20:28;2.60;17.30
24686;DHT22;12804;51.176;4.452;2024-01-07T15:22:54;2.70;11.40
24686;DHT22;12804;51.176;4.452;2024-01-07T15:25:20;2.80;14.80
24686;DHT22;12804;51.176;4.452;2024-01-07T15:27:46;2.70;18.30
24686;DHT22;12804;51.176;4.452;2024-01-07T15:30:12;2.60;17.80
24686;DHT22;12804;51.176;4.452;2024-01-07T15:32:38;2.70;24.20
24686;DHT22;12804;51.176;4.452;2024-01-07T15:35:04;2.70;20.40
24686;DHT22;12804;51.176;4.452;2024-01-07T15:37:31;2.50;18.90
24686;DHT22;12804;51.176;4.452;2024-01-07T15:39:57;2.40;7.90
24686;DHT22;12804;51.176;4.452;2024-01-07T15:42:23;2.10;11.80
24686;DHT22;12804;51.176;4.452;2024-01-07T15:44:50;1.90;12.60
24686;DHT22;12804;51.176;4.452;2024-01-07T15:47:16;1.70;14.40
24686;DHT22;12804;51.176;4.452;2024-01-07T15:49:42;1.80;1.00